createdAt,value
2023-03-22T01:59:44.313Z,1.52
2023-03-22T02:00:44.377Z,1.53
2023-03-22T02:01:44.486Z,1.50
2023-03-22T02:02:44.529Z,1.53
2023-03-22T02:03:44.533Z,1.51
2023-03-22T02:04:44.608Z,1.51
2023-03-22T02:05:44.685Z,1.50
2023-03-22T02:06:44.695Z,1.51
2023-03-22T02:07:44.791Z,1.51
2023-03-22T02:08:44.830Z,1.51
2023-03-22T02:09:44.915Z,1.49
2023-03-22T02:10:44.941Z,1.51
2023-03-22T02:11:44.986Z,1.49
2023-03-22T02:12:45.043Z,1.46
2023-03-22T02:13:45.077Z,1.50
2023-03-22T02:14:45.154Z,1.47
2023-03-22T02:15:45.239Z,1.50
2023-03-22T02:16:45.242Z,1.49
2023-03-22T02:17:45.324Z,1.48
2023-03-22T02:18:45.354Z,1.45
2023-03-22T02:19:45.387Z,1.47
2023-03-22T02:20:45.487Z,1.44
2023-03-22T02:21:45.529Z,1.45
2023-03-22T02:22:45.584Z,1.43
2023-03-22T02:23:45.644Z,1.44
2023-03-22T02:24:45.674Z,1.47
2023-03-22T02:25:45.694Z,1.43
2023-03-22T02:26:45.778Z,1.44
2023-03-22T02:27:45.809Z,1.46
2023-03-22T02:28:45.889Z,1.45
2023-03-22T02:29:45.913Z,1.42
2023-03-22T02:30:45.977Z,1.45
2023-03-22T02:31:46.018Z,1.45
2023-03-22T02:32:46.071Z,1.42
2023-03-22T02:33:46.132Z,1.46
2023-03-22T02:34:46.146Z,1.44
2023-03-22T02:35:46.244Z,1.44
2023-03-22T02:36:46.248Z,1.45
2023-03-22T02:37:46.341Z,1.45
2023-03-22T02:38:46.381Z,1.44
2023-03-22T02:39:46.427Z,1.45
2023-03-22T02:40:46.477Z,1.45
2023-03-22T02:41:46.521Z,1.42
2023-03-22T02:42:46.573Z,1.42
2023-03-22T02:43:46.639Z,1.44
2023-03-22T05:05:49.450Z,1.30
2023-03-22T05:06:49.502Z,1.31
2023-03-22T05:07:49.494Z,1.29
2023-03-22T05:08:49.494Z,1.31
2023-03-22T05:09:49.518Z,1.30
2023-03-22T05:10:49.529Z,1.28
2023-03-22T05:11:49.557Z,1.29
2023-03-22T05:12:49.535Z,1.29
2023-03-22T05:13:49.558Z,1.28
2023-03-22T05:14:49.629Z,1.28
2023-03-22T05:15:49.640Z,1.28
2023-03-22T05:16:49.618Z,1.29
2023-03-22T05:17:49.625Z,1.28
2023-03-22T05:18:49.628Z,1.29
2023-03-22T05:19:49.640Z,1.27
2023-03-22T05:20:49.647Z,1.26
2023-03-22T05:21:49.689Z,1.26
2023-03-22T05:22:49.716Z,1.27
2023-03-22T05:23:51.483Z,1.26
2023-03-22T05:24:49.759Z,1.24
2023-03-22T05:25:49.744Z,1.26
2023-03-22T05:26:49.751Z,1.25
2023-03-22T05:27:49.782Z,1.23
2023-03-22T05:28:49.780Z,1.25
2023-03-22T05:29:49.877Z,1.26
2023-03-22T05:30:49.864Z,1.26
2023-03-22T05:31:49.929Z,1.24
2023-03-22T05:32:49.887Z,1.26
2023-03-22T05:33:49.933Z,1.27
2023-03-22T05:34:49.956Z,1.23
2023-03-22T05:35:50.012Z,1.23
2023-03-22T05:36:49.988Z,1.23
2023-03-22T05:37:49.973Z,1.24
2023-03-22T05:38:49.984Z,1.23
2023-03-22T05:39:50.008Z,1.23
2023-03-22T05:40:49.978Z,1.23
2023-03-22T05:41:49.978Z,1.22
2023-03-22T05:42:50.004Z,1.21
2023-03-22T05:43:50.017Z,1.22
2023-03-22T05:44:50.017Z,1.20
2023-03-22T05:45:50.020Z,1.23
2023-03-22T05:46:50.003Z,1.21
2023-03-22T05:47:50.039Z,1.22
2023-03-22T05:48:50.041Z,1.21
2023-03-22T05:49:50.060Z,1.22
2023-03-22T05:50:50.056Z,1.22
2023-03-22T05:51:50.020Z,1.20
2023-03-22T05:52:50.041Z,1.20
2023-03-22T05:53:50.039Z,1.21
2023-03-22T05:54:50.001Z,1.19
2023-03-22T05:55:49.996Z,1.19
2023-03-22T05:56:50.007Z,1.20
2023-03-22T05:57:49.999Z,1.18
2023-03-22T05:58:50.005Z,1.21
2023-03-22T05:59:49.980Z,1.20
2023-03-22T06:00:57.022Z,1.18
2023-03-22T06:01:50.041Z,1.19
2023-03-22T06:02:50.052Z,1.20
2023-03-22T06:03:49.997Z,1.20
2023-03-22T06:04:49.978Z,1.20
2023-03-22T06:05:49.980Z,1.21
2023-03-22T06:06:50.001Z,1.19
2023-03-22T06:07:49.979Z,1.20
2023-03-22T06:08:49.969Z,1.18
2023-03-22T06:09:49.958Z,1.19
2023-03-22T06:10:49.956Z,1.17
2023-03-22T06:11:49.938Z,1.19
2023-03-22T06:12:49.946Z,1.17
2023-03-22T06:13:49.940Z,1.15
2023-03-22T06:14:49.954Z,1.16
2023-03-22T06:15:49.909Z,1.16
2023-03-22T06:16:49.999Z,1.16
2023-03-22T06:17:49.906Z,1.15
2023-03-22T06:18:49.881Z,1.16
2023-03-22T06:19:52.607Z,1.16
2023-03-22T06:20:49.887Z,1.16
2023-03-22T06:21:49.867Z,1.16
2023-03-22T06:22:49.880Z,1.16
2023-03-22T06:23:49.831Z,1.15
2023-03-22T06:24:49.833Z,1.15
2023-03-22T06:25:49.851Z,1.18
2023-03-22T06:26:49.840Z,1.15
2023-03-22T06:27:49.810Z,1.15
2023-03-22T06:28:49.769Z,1.17
2023-03-22T06:29:49.762Z,1.17
2023-03-22T06:30:49.810Z,1.13
2023-03-22T06:31:49.753Z,1.16
2023-03-22T06:32:49.718Z,1.19
2023-03-22T06:33:49.736Z,1.21
2023-03-22T06:34:49.734Z,1.28
2023-03-22T06:35:49.737Z,1.53
2023-03-22T06:36:49.693Z,1.59
2023-03-22T06:37:49.704Z,1.48
2023-03-22T06:38:49.730Z,1.40
2023-03-22T06:39:49.701Z,1.39
2023-03-22T06:40:50.182Z,1.39
2023-03-22T06:41:49.679Z,1.37
2023-03-22T06:42:49.676Z,1.41
2023-03-22T06:43:49.687Z,1.39
2023-03-22T06:44:49.665Z,1.37
2023-03-22T06:45:56.835Z,1.35
2023-03-22T06:46:49.649Z,1.36
2023-03-22T06:47:49.675Z,1.38
2023-03-22T06:48:49.660Z,1.42
2023-03-22T06:49:49.679Z,1.51
2023-03-22T06:50:49.684Z,1.75
2023-03-22T06:51:49.616Z,1.71
2023-03-22T06:52:49.664Z,1.68
2023-03-22T06:53:49.696Z,1.67
2023-03-22T06:54:49.612Z,1.40
2023-03-22T06:55:49.607Z,1.46
2023-03-22T06:56:49.593Z,1.60
2023-03-22T06:57:49.634Z,1.61
2023-03-22T06:58:49.696Z,1.51
2023-03-22T06:59:49.582Z,1.52
2023-03-22T07:00:49.592Z,1.50
2023-03-22T07:01:49.586Z,1.46
2023-03-22T07:02:51.526Z,1.47
2023-03-22T07:03:49.597Z,1.46
2023-03-22T07:04:49.624Z,1.41
2023-03-22T07:05:49.582Z,1.41
2023-03-22T07:06:49.600Z,1.40
2023-03-22T07:07:49.598Z,1.39
2023-03-22T07:08:50.887Z,1.35
2023-03-22T07:09:49.591Z,1.35
2023-03-22T07:10:49.579Z,1.35
2023-03-22T07:11:49.614Z,1.32
2023-03-22T07:12:49.700Z,1.27
2023-03-22T07:13:49.666Z,1.24
2023-03-22T07:14:49.750Z,1.24
2023-03-22T07:15:49.835Z,1.20
2023-03-22T07:16:50.274Z,0.98
2023-03-22T07:17:49.902Z,0.92
2023-03-22T07:18:49.972Z,0.98
2023-03-22T07:19:50.027Z,1.00
2023-03-22T07:20:50.096Z,0.95
2023-03-22T07:21:50.250Z,0.99
2023-03-22T07:22:50.197Z,1.00
2023-03-22T07:23:50.273Z,0.98
2023-03-22T07:24:56.697Z,0.99
2023-03-22T07:26:50.301Z,0.87
2023-03-22T07:27:50.313Z,0.69
2023-03-22T07:28:50.319Z,0.72
2023-03-22T07:29:50.379Z,0.62
2023-03-22T07:30:50.372Z,0.73
2023-03-22T07:31:50.870Z,0.77
2023-03-22T07:32:50.321Z,0.73
2023-03-22T07:33:50.318Z,0.77
2023-03-22T07:34:50.333Z,0.66
2023-03-22T07:35:50.441Z,0.56
2023-03-22T07:36:50.711Z,0.52
2023-03-22T07:37:50.522Z,0.97
2023-03-22T07:38:50.529Z,0.77
2023-03-22T07:39:50.571Z,0.71
2023-03-22T07:40:50.588Z,0.65
2023-03-22T07:41:50.783Z,0.91
2023-03-22T07:44:50.793Z,0.50
2023-03-22T08:36:54.305Z,3.29
2023-03-22T08:47:54.480Z,5.28
2023-03-22T08:48:54.345Z,5.52
2023-03-22T08:49:54.394Z,5.31
2023-03-22T08:50:54.437Z,6.16
2023-03-22T08:51:54.508Z,6.09
2023-03-22T08:52:54.563Z,6.20
2023-03-22T08:53:54.637Z,6.43
2023-03-22T08:54:54.700Z,6.47
2023-03-22T08:55:54.786Z,6.81
2023-03-22T08:56:54.851Z,6.09
2023-03-22T08:57:54.906Z,7.24
2023-03-22T08:58:54.974Z,7.48
2023-03-22T08:59:54.973Z,7.74
2023-03-22T09:00:55.134Z,7.72
2023-03-22T09:01:55.226Z,7.70
2023-03-22T09:02:55.196Z,7.76
2023-03-22T09:03:55.212Z,7.79
2023-03-22T09:04:55.333Z,8.10
2023-03-22T09:05:55.315Z,8.27
2023-03-22T09:06:55.376Z,7.34
2023-03-22T09:07:56.607Z,6.58
2023-03-22T09:20:55.960Z,3.74
2023-03-22T10:53:57.850Z,4.19
2023-03-22T10:55:02.326Z,4.30
2023-03-22T10:56:57.870Z,4.34
2023-03-22T10:57:57.927Z,4.47
2023-03-22T10:58:57.909Z,4.64
2023-03-22T10:59:57.862Z,4.92
2023-03-22T11:00:57.902Z,5.28
2023-03-22T11:01:58.095Z,5.35
2023-03-22T11:02:57.961Z,5.13
2023-03-22T11:03:57.900Z,5.03
2023-03-22T11:04:57.831Z,4.94
2023-03-22T11:05:57.930Z,4.93
2023-03-22T11:06:57.856Z,4.98
2023-03-22T14:46:32.943Z,0.50
2023-03-22T14:47:32.948Z,0.50
2023-03-22T14:48:32.991Z,0.50
2023-03-22T14:49:33.003Z,0.50
2023-03-22T14:50:33.001Z,0.50
2023-03-22T14:51:33.037Z,0.50
2023-03-22T14:52:33.025Z,0.63
2023-03-22T14:53:33.030Z,0.75
2023-03-22T14:54:33.071Z,0.90
2023-03-22T14:55:33.083Z,0.93
2023-03-22T14:56:33.105Z,1.00
2023-03-22T14:57:36.809Z,0.84
2023-03-22T14:58:33.103Z,0.84
2023-03-22T14:59:33.104Z,0.83
2023-03-22T15:00:33.125Z,0.86
2023-03-22T15:04:33.168Z,1.15
2023-03-22T15:05:33.164Z,1.24
2023-03-22T15:06:33.198Z,1.36
2023-03-22T15:07:33.177Z,1.09
2023-03-22T15:08:33.242Z,1.21
2023-03-22T15:13:33.268Z,0.77
2023-03-22T15:14:33.274Z,1.09
2023-03-22T15:15:33.622Z,1.29
2023-03-22T15:16:33.401Z,1.46
2023-03-22T15:17:33.354Z,1.45
2023-03-22T15:18:33.322Z,1.54
2023-03-22T15:19:33.362Z,0.97
2023-03-22T15:20:33.634Z,1.03
2023-03-22T15:21:33.376Z,1.41
2023-03-22T15:22:33.405Z,1.74
2023-03-22T15:23:33.399Z,1.38
2023-03-22T15:24:33.426Z,0.87
2023-03-22T15:29:33.480Z,0.40
2023-03-22T15:30:33.440Z,0.47
2023-03-22T15:31:33.538Z,0.52
2023-03-22T15:32:33.460Z,0.95
2023-03-22T15:33:33.477Z,1.06
2023-03-22T15:34:33.476Z,1.41
2023-03-22T15:35:33.581Z,1.39
2023-03-22T15:36:33.537Z,1.12
2023-03-22T15:37:33.533Z,0.70
2023-03-22T15:38:43.153Z,0.61
2023-03-22T15:39:34.551Z,0.62
2023-03-22T15:43:33.548Z,0.57
2023-03-22T15:44:33.551Z,0.87
2023-03-22T15:45:33.604Z,0.93
2023-03-22T15:46:33.601Z,1.09
2023-03-22T15:47:33.602Z,1.53
2023-03-22T15:48:33.609Z,1.27
2023-03-22T15:49:33.634Z,1.49
2023-03-22T15:50:33.663Z,1.00
2023-03-22T16:19:34.025Z,9.82
2023-03-22T16:20:34.126Z,10.06
2023-03-22T16:23:34.166Z,11.03
2023-03-22T16:25:34.866Z,12.44
2023-03-22T16:27:34.182Z,13.83
2023-03-22T16:28:34.197Z,15.66
2023-03-22T16:29:34.213Z,18.36
2023-03-22T16:30:34.248Z,17.30
2023-03-22T16:37:34.264Z,12.62
2023-03-22T16:38:34.231Z,12.90
2023-03-22T16:45:34.417Z,13.09
2023-03-22T16:56:34.638Z,10.27
2023-03-22T16:58:34.613Z,8.82
2023-03-22T16:59:34.624Z,8.15
2023-03-22T17:06:34.770Z,9.05
2023-03-22T17:07:34.780Z,8.33
2023-03-22T17:08:34.801Z,8.10
2023-03-22T17:09:34.889Z,8.05
2023-03-22T17:10:34.863Z,7.30
2023-03-22T17:17:34.984Z,7.87
2023-03-22T17:18:35.051Z,7.80
2023-03-22T17:19:35.028Z,8.30
2023-03-22T17:20:35.077Z,8.63
2023-03-22T17:21:35.172Z,8.95
2023-03-22T17:22:35.121Z,8.29
2023-03-22T17:23:35.137Z,8.40
2023-03-22T17:24:35.195Z,7.98
2023-03-22T17:25:35.214Z,7.99
2023-03-22T17:26:35.220Z,8.34
2023-03-22T17:27:35.252Z,8.52
2023-03-22T17:28:35.270Z,8.81
2023-03-22T17:29:35.256Z,8.81
2023-03-22T17:30:35.286Z,8.94
2023-03-22T17:31:35.336Z,9.19
2023-03-22T17:32:59.277Z,8.40
2023-03-22T17:33:36.381Z,8.27
2023-03-22T17:36:35.428Z,7.38
2023-03-22T17:38:44.081Z,7.09
2023-03-22T17:40:42.644Z,7.13
2023-03-22T17:41:36.408Z,7.16
2023-03-22T17:47:39.125Z,9.82
2023-03-22T17:48:36.475Z,9.82
2023-03-22T17:51:35.540Z,8.11
2023-03-22T17:54:24.144Z,7.56
2023-03-22T17:56:10.663Z,7.57
2023-03-22T17:58:41.673Z,7.64
2023-03-22T17:59:36.567Z,7.65
2023-03-22T18:03:35.557Z,9.78
2023-03-22T18:04:35.608Z,9.48
2023-03-22T18:05:35.616Z,8.78
2023-03-22T18:06:35.654Z,8.50
2023-03-22T18:07:35.638Z,8.21
2023-03-22T18:10:35.641Z,8.51
2023-03-22T18:11:35.688Z,8.47
2023-03-22T18:13:35.664Z,8.50
2023-03-22T18:16:52.902Z,7.75
2023-03-22T18:17:36.719Z,7.77
2023-03-22T18:18:35.692Z,7.85
2023-03-22T18:19:36.901Z,7.97
2023-03-22T18:22:35.755Z,6.38
2023-03-22T18:28:35.798Z,7.16
2023-03-22T18:29:35.794Z,6.92
2023-03-22T18:30:35.867Z,7.42
2023-03-22T18:31:35.812Z,7.78
2023-03-22T18:32:59.751Z,8.70
2023-03-22T18:33:36.835Z,8.73
2023-03-22T18:35:35.822Z,9.18
2023-03-22T18:36:35.944Z,9.81
2023-03-22T18:37:35.891Z,11.09
2023-03-22T18:41:45.003Z,11.42
2023-03-22T18:43:36.702Z,11.72
2023-03-22T18:47:35.970Z,15.32
2023-03-22T18:48:36.448Z,15.57
2023-03-22T18:51:59.630Z,16.07
2023-03-22T18:52:54.393Z,16.11
2023-03-22T18:53:36.988Z,16.15
2023-03-22T18:54:38.871Z,16.14
2023-03-22T18:55:36.639Z,15.05
2023-03-22T18:56:36.017Z,13.58
2023-03-22T18:57:36.052Z,13.52
2023-03-22T18:58:36.048Z,13.94
2023-03-22T19:00:36.062Z,14.52
2023-03-22T19:01:36.084Z,14.67
2023-03-22T19:02:40.186Z,14.91
2023-03-22T19:06:36.127Z,15.69
2023-03-22T19:08:36.134Z,16.92
2023-03-22T19:09:36.171Z,17.03
2023-03-22T19:13:42.605Z,17.65
2023-03-22T19:17:36.269Z,17.27
2023-03-22T19:18:36.260Z,16.97
2023-03-22T19:19:36.289Z,17.18
2023-03-22T19:20:40.228Z,17.06
2023-03-22T19:21:37.111Z,17.09
2023-03-22T19:22:36.323Z,17.14
2023-03-22T19:23:36.315Z,17.07
2023-03-22T19:24:36.336Z,16.47
2023-03-22T19:28:37.428Z,14.83
2023-03-22T19:29:36.393Z,14.83
2023-03-22T19:30:36.415Z,14.97
2023-03-22T19:31:37.210Z,15.42
2023-03-22T19:34:36.513Z,16.05
2023-03-22T19:35:36.500Z,16.54
2023-03-22T19:36:36.596Z,16.63
2023-03-22T19:37:36.537Z,16.10
2023-03-22T19:38:36.557Z,16.44
2023-03-22T19:39:38.159Z,16.53
2023-03-22T19:41:28.873Z,16.30
2023-03-22T19:44:36.618Z,14.45
2023-03-22T19:45:36.636Z,13.08
2023-03-22T19:46:36.865Z,12.41
2023-03-22T19:47:48.230Z,11.54
2023-03-22T19:48:37.769Z,10.77
2023-03-22T19:52:36.694Z,10.97
2023-03-22T19:55:36.738Z,12.81
2023-03-22T19:56:36.762Z,12.63
2023-03-22T19:57:36.785Z,12.22
2023-03-22T19:58:36.791Z,12.42
2023-03-22T20:00:44.904Z,13.44
2023-03-22T20:01:37.801Z,13.47
2023-03-22T20:03:36.835Z,13.62
2023-03-22T20:04:36.836Z,13.79
2023-03-22T20:05:43.305Z,14.10
2023-03-22T20:06:37.859Z,13.49
2023-03-22T20:07:36.882Z,13.68
2023-03-22T20:08:36.900Z,13.78
2023-03-22T20:09:36.904Z,14.40
2023-03-22T20:10:36.928Z,15.11
2023-03-22T20:11:43.339Z,15.20
2023-03-22T20:12:37.984Z,15.24
2023-03-22T20:13:36.928Z,15.31
2023-03-22T20:14:36.964Z,15.31
2023-03-22T20:15:36.988Z,15.44
2023-03-22T20:17:36.983Z,15.13
2023-03-22T20:18:37.000Z,14.72
2023-03-22T20:19:37.010Z,14.54
2023-03-22T20:20:37.056Z,14.68
2023-03-22T20:21:37.072Z,14.80
2023-03-22T20:22:37.069Z,14.56
2023-03-22T20:24:37.082Z,15.04
2023-03-22T20:25:37.080Z,15.08
2023-03-22T20:26:37.100Z,15.10
2023-03-22T20:28:37.139Z,15.38
2023-03-22T20:29:37.229Z,15.75
2023-03-22T20:30:37.291Z,15.56
2023-03-22T20:31:37.334Z,15.44
2023-03-22T20:32:37.378Z,14.78
2023-03-22T20:33:37.438Z,14.99
2023-03-22T20:34:37.523Z,14.88
2023-03-22T20:35:37.547Z,15.02
2023-03-22T20:36:37.658Z,15.11
2023-03-22T20:37:37.651Z,15.14
2023-03-22T20:38:37.690Z,15.13
2023-03-22T20:39:37.775Z,14.60
2023-03-22T20:40:37.821Z,14.51
2023-03-22T20:41:37.851Z,13.09
2023-03-22T20:42:37.932Z,10.79
2023-03-22T20:43:37.982Z,10.71
2023-03-22T20:44:38.030Z,9.78
2023-03-22T20:45:38.082Z,9.52
2023-03-22T20:46:38.161Z,9.79
2023-03-22T20:47:38.196Z,10.26
2023-03-22T20:48:38.264Z,9.61
2023-03-22T20:49:38.358Z,9.54
2023-03-22T20:50:38.386Z,9.84
2023-03-22T20:51:38.456Z,10.34
2023-03-22T20:52:38.520Z,10.72
2023-03-22T20:53:38.560Z,11.08
2023-03-22T20:54:38.658Z,11.30
2023-03-22T20:55:38.936Z,11.17
2023-03-22T20:56:38.788Z,11.51
2023-03-22T20:57:38.828Z,11.48
2023-03-22T20:58:38.903Z,11.52
2023-03-22T20:59:38.949Z,11.84
2023-03-22T21:00:39.023Z,12.23
2023-03-22T21:01:39.135Z,11.67
2023-03-22T21:02:39.157Z,11.08
2023-03-22T21:03:39.255Z,10.99
2023-03-22T21:04:39.362Z,11.35
2023-03-22T21:05:39.381Z,11.70
2023-03-22T21:06:39.374Z,12.16
2023-03-22T21:07:39.464Z,12.00
2023-03-22T21:08:39.523Z,11.66
2023-03-22T21:09:39.600Z,11.65
2023-03-22T21:10:39.656Z,11.58
2023-03-22T21:11:39.716Z,11.15
2023-03-22T21:12:39.770Z,11.09
2023-03-22T21:13:39.830Z,10.89
2023-03-22T21:14:39.844Z,10.92
2023-03-22T21:15:40.138Z,10.89
2023-03-22T21:16:39.952Z,11.10
2023-03-22T21:17:40.016Z,10.91
2023-03-22T21:18:40.049Z,11.07
2023-03-22T21:19:40.083Z,10.80
2023-03-22T21:20:40.127Z,10.24
2023-03-22T21:21:40.191Z,9.25
2023-03-22T21:22:40.234Z,8.41
2023-03-22T21:23:40.332Z,8.34
2023-03-22T21:24:40.351Z,8.55
2023-03-22T21:25:40.593Z,8.98
2023-03-22T21:26:40.489Z,9.21
2023-03-22T21:27:40.514Z,9.80
2023-03-22T21:28:40.586Z,10.19
2023-03-22T21:29:40.638Z,10.07
2023-03-22T21:30:40.690Z,10.28
2023-03-22T21:31:40.757Z,10.52
2023-03-22T21:32:40.821Z,10.73
2023-03-22T21:33:40.975Z,10.43
2023-03-22T21:34:40.939Z,10.16
2023-03-22T21:35:41.114Z,10.05
2023-03-22T21:36:41.073Z,10.17
2023-03-22T21:37:41.098Z,10.26
2023-03-22T21:38:41.160Z,10.38
2023-03-22T21:39:41.191Z,10.27
2023-03-22T21:40:41.260Z,10.35
2023-03-22T21:41:41.328Z,10.33
2023-03-22T21:42:41.390Z,10.33
2023-03-22T21:43:41.425Z,10.46
2023-03-22T21:44:41.495Z,9.91
2023-03-22T21:45:41.741Z,9.40
2023-03-22T21:46:41.618Z,9.42
2023-03-22T21:47:41.661Z,9.48
2023-03-22T21:48:41.706Z,9.55
2023-03-22T21:49:41.774Z,9.42
2023-03-22T21:50:41.822Z,9.43
2023-03-22T21:51:41.882Z,9.57
2023-03-22T21:52:41.950Z,9.55
2023-03-22T21:56:42.132Z,9.93
2023-03-22T21:57:42.156Z,9.60
2023-03-22T21:58:42.206Z,10.18
2023-03-22T21:59:42.298Z,9.94
2023-03-22T22:00:42.345Z,10.15
2023-03-22T22:01:42.383Z,10.17
2023-03-22T22:02:42.486Z,9.88
2023-03-22T22:03:42.538Z,10.20
2023-03-22T22:04:42.570Z,10.25
2023-03-22T22:05:42.897Z,10.21
2023-03-22T22:06:42.674Z,10.15
2023-03-22T22:07:42.727Z,9.88
2023-03-22T22:08:42.818Z,10.02
2023-03-22T22:09:42.839Z,9.81
2023-03-22T22:10:42.903Z,10.06
2023-03-22T22:11:42.958Z,9.93
2023-03-22T22:12:43.002Z,10.05
2023-03-22T22:13:43.086Z,9.96
2023-03-22T22:14:43.124Z,10.28
2023-03-22T22:15:43.293Z,10.07
2023-03-22T22:16:43.227Z,10.13
2023-03-22T22:17:43.331Z,10.02
2023-03-22T22:18:43.395Z,9.93
2023-03-22T22:19:43.438Z,9.78
2023-03-22T22:20:43.501Z,10.01
2023-03-22T22:21:43.552Z,9.87
2023-03-22T22:22:43.635Z,9.79
2023-03-22T22:23:43.702Z,9.66
2023-03-22T22:24:43.778Z,9.91
2023-03-22T22:25:43.803Z,9.77
2023-03-22T22:26:43.856Z,9.53
2023-03-22T22:27:43.921Z,9.47
2023-03-22T22:28:44.004Z,9.32
2023-03-22T22:29:44.079Z,8.73
2023-03-22T22:30:44.129Z,8.52
2023-03-22T22:31:44.150Z,8.10
2023-03-22T22:32:44.232Z,8.19
2023-03-22T22:33:44.307Z,8.00
2023-03-22T22:34:44.337Z,8.09
2023-03-22T22:35:44.609Z,8.06
2023-03-22T22:36:45.310Z,7.89
2023-03-22T22:39:44.694Z,6.82
2023-03-22T22:40:44.724Z,5.98
2023-03-22T22:41:44.781Z,5.76
2023-03-22T22:42:44.853Z,5.33
2023-03-22T22:43:44.928Z,5.17
2023-03-22T22:44:44.996Z,5.04
2023-03-22T22:45:45.071Z,5.12
2023-03-22T22:46:45.145Z,4.89
2023-03-22T22:47:45.195Z,5.06
2023-03-22T22:48:45.279Z,5.22
2023-03-22T22:49:45.360Z,5.56
2023-03-22T22:50:45.410Z,5.57
2023-03-22T22:51:45.495Z,5.66
2023-03-22T22:52:45.599Z,5.38
2023-03-22T22:53:45.648Z,5.10
2023-03-22T22:54:45.717Z,4.97
2023-03-22T22:55:45.777Z,4.98
2023-03-22T22:56:45.835Z,4.95
2023-03-22T22:57:45.913Z,5.07
2023-03-22T22:58:45.981Z,5.08
2023-03-22T22:59:46.034Z,5.19
2023-03-22T23:00:46.127Z,5.32
2023-03-22T23:01:46.204Z,5.53
2023-03-22T23:02:46.277Z,5.51
2023-03-22T23:03:46.319Z,5.74
2023-03-22T23:04:46.380Z,5.80
2023-03-22T23:05:46.476Z,5.74
2023-03-22T23:06:46.540Z,5.83
2023-03-22T23:07:46.614Z,5.89
2023-03-22T23:08:46.688Z,5.84
2023-03-22T23:09:46.777Z,5.82
2023-03-22T23:10:46.832Z,5.79
2023-03-22T23:11:46.902Z,5.77
2023-03-22T23:12:47.006Z,5.70
2023-03-22T23:13:47.052Z,5.84
2023-03-22T23:14:47.112Z,5.82
2023-03-22T23:15:47.147Z,5.81
2023-03-22T23:16:47.255Z,5.59
2023-03-22T23:17:47.281Z,5.52
2023-03-22T23:18:47.339Z,5.29
2023-03-22T23:19:47.438Z,5.14
2023-03-22T23:20:47.492Z,5.17
2023-03-22T23:21:47.563Z,5.22
2023-03-22T23:22:47.628Z,5.19
2023-03-22T23:23:50.081Z,5.28
2023-03-22T23:24:47.755Z,5.43
2023-03-22T23:25:47.847Z,5.29
2023-03-22T23:26:47.913Z,5.37
2023-03-22T23:27:47.957Z,5.29
2023-03-22T23:28:48.026Z,5.03
2023-03-22T23:29:48.130Z,4.96
2023-03-22T23:30:48.159Z,4.99
2023-03-22T23:31:48.249Z,4.99
2023-03-22T23:32:48.336Z,5.06
2023-03-22T23:33:48.396Z,4.91
2023-03-22T23:34:48.455Z,4.65
2023-03-22T23:35:48.552Z,3.95
2023-03-22T23:36:48.638Z,3.36
2023-03-22T23:37:48.680Z,3.25
2023-03-22T23:38:48.771Z,3.25
2023-03-22T23:39:48.816Z,3.04
2023-03-22T23:40:48.904Z,2.95
2023-03-22T23:41:48.977Z,2.98
2023-03-22T23:42:49.053Z,3.27
2023-03-22T23:43:49.066Z,3.27
2023-03-22T23:44:49.083Z,3.32
2023-03-22T23:45:49.107Z,3.45
2023-03-22T23:57:49.349Z,4.89
2023-03-22T23:58:49.345Z,4.71
2023-03-22T23:59:49.403Z,4.54
